KAST/AST METAR and TAF weather

Enter ICAO airport designator
Station Type Date Time Source
KAST METAR 2019/02/16 02:55 UTC NOAA

KAST 160255Z AUTO 10004KT 10SM -RA OVC038 06/04 A2964 RMK AO2 RAB00E16B26 SLP035 P0001 60001 T00610039 53006


Station Type Date Time Source
KAST Decoded METAR 2019/02/16 02:55 UTC NOAA

PORT OF ASTORIA AIRPORT, OR, United States (KAST) 46-09N 123-53W 3M
Feb 15, 2019 - 09:55 PM EST / 2019.02.16 0255 UTC
Wind: from the E (100 degrees) at 5 MPH (4 KT):0
Visibility: 10 mile(s):0
Sky conditions: overcast
Weather: light rain
Precipitation last hour: 0.01 inches
Temperature: 43.0 F (6.1 C)
Dew Point: 39.0 F (3.9 C)
Relative Humidity: 85%
Pressure (altimeter): 29.64 in. Hg (1003 hPa)
Pressure tendency: 0.02 inches (0.6 hPa) higher than three hours ago
ob: KAST 160255Z AUTO 10004KT 10SM -RA OVC038 06/04 A2964 RMK AO2 RAB00E16B26 SLP035 P0001 60001 T00610039 53006
cycle: 3

Station Type Date Time Source
KAST TAF 2019/02/15 18:36 UTC NOAA

TAF KAST 151732Z 1518/1618 11006KT P6SM -SHRA SCT020 BKN035 OVC045
FM152100 13006KT P6SM VCSH SCT025 BKN045
FM160200 08004KT 6SM -RA BKN022 OVC035
FM160800 VRB04KT P6SM -SHRA SCT020 BKN035 OVC045
FM161600 33008KT P6SM VCSH SCT025 BKN045 BKN070


Example: see airport list